Flight Track Log - Related Links

Times and Time Zones

All times are in EDT time to prevent confusion due to time zone crossing. See the N81AX flight status page for this flight to view local times or setup timezone preferences in your user account.


Time Position Orientation Groundspeed Altitude Reporting Facility
EDT Latitude Longitude Course Direction KTS MPH feet Rate Location/Type
Mon 09:01:45 PM 36.1333 -86.9000 202° Southwest 187 215 3,100  Level Nashville TRACON
Mon 09:02:51 PM 36.0667 -86.9333 202° Southwest 280 322 6,600 3,500 Climbing Nashville TRACON
Mon 09:03:57 PM 35.9875 -86.9836 207° Southwest 296 341 10,800 3,402 Climbing Memphis Center
Mon 09:04:58 PM 35.8972 -87.0333 204° Southwest 310 357 13,800 3,400 Climbing Memphis Center
Mon 09:05:57 PM 35.8131 -87.0881 208° Southwest 337 388 17,600 3,126 Climbing Memphis Center
Mon 09:06:57 PM 35.7467 -87.1828 229° Southwest 350 403 20,000 2,600 Climbing Memphis Center
Mon 09:07:57 PM 35.6847 -87.2875 234° Southwest 373 429 22,800 2,500 Climbing Memphis Center
Mon 09:08:57 PM 35.6078 -87.3872 227° Southwest 398 458 25,000 1,700 Climbing Memphis Center
Mon 09:09:57 PM 35.5228 -87.4925 225° Southwest 414 476 26,200 1,350 Climbing Memphis Center
Mon 09:10:57 PM 35.4333 -87.6000 224° Southwest 437 503 27,700 1,650 Climbing Memphis Center
Mon 09:11:57 PM 35.3564 -87.7017 227° Southwest 455 524 29,500 1,850 Climbing Memphis Center
Mon 09:12:57 PM 35.2692 -87.8164 227° Southwest 455 524 31,400 1,500 Climbing Memphis Center
Mon 09:13:57 PM 35.1839 -87.9333 228° Southwest 455 524 32,500 1,650 Climbing Memphis Center
Mon 09:14:57 PM 35.0881 -88.0553 226° Southwest 455 524 34,700 2,150 Climbing Memphis Center
Mon 09:15:57 PM 35.0169 -88.1486 227° Southwest 450 518 36,800 1,500 Climbing Memphis Center
Mon 09:16:57 PM 34.9331 -88.2547 226° Southwest 444 511 37,700 650 Climbing Memphis Center
Mon 09:17:57 PM 34.8472 -88.3556 224° Southwest 437 503 38,100 700 Climbing Memphis Center
Mon 09:18:57 PM 34.7569 -88.4561 222° Southwest 437 503 39,100 450 Climbing Memphis Center
Mon 09:19:57 PM 34.6708 -88.5492 222° Southwest 428 493 39,000 -50 Descending Memphis Center
Mon 09:20:57 PM 34.5783 -88.6594 224° Southwest 423 487 39,000  Level Memphis Center
Mon 09:21:58 PM 34.4964 -88.7594 225° Southwest 423 487 39,000  Level Memphis Center
Mon 09:22:57 PM 34.4119 -88.8542 223° Southwest 423 487 39,000 303 Level Memphis Center
Mon 09:23:57 PM 34.3317 -88.9586 227° Southwest 418 481 39,600 600 Climbing Memphis Center
Mon 09:24:57 PM 34.2494 -89.0581 225° Southwest 418 481 40,200 800 Climbing Memphis Center
Mon 09:25:57 PM 34.1669 -89.1572 225° Southwest 424 488 41,200 950 Climbing Memphis Center
Mon 09:26:57 PM 34.0864 -89.2561 225° Southwest 419 482 42,100 550 Climbing Memphis Center
Mon 09:27:57 PM 34.0058 -89.3525 225° Southwest 412 474 42,300 397 Climbing Memphis Center
Mon 09:28:58 PM 33.9314 -89.4358 223° Southwest 412 474 42,900 350 Climbing Memphis Center
Mon 09:29:57 PM 33.8528 -89.5342 226° Southwest 412 474 43,000 50 Climbing Memphis Center
Mon 09:30:57 PM 33.7636 -89.6400 225° Southwest 407 468 43,000  Level Memphis Center
Mon 09:31:57 PM 33.6847 -89.7381 226° Southwest 407 468 43,000  Level Memphis Center
Mon 09:32:57 PM 33.6019 -89.8383 225° Southwest 407 468 43,000  Level Memphis Center
Mon 09:33:57 PM 33.5292 -89.9286 226° Southwest 407 468 43,000  Level Memphis Center
Mon 09:34:57 PM 33.4481 -90.0261 225° Southwest 407 468 43,000  Level Memphis Center
Mon 09:35:57 PM 33.3628 -90.1233 224° Southwest 407 468 43,000  Level Memphis Center
Mon 09:36:57 PM 33.2814 -90.2231 226° Southwest 407 468 43,000  Level Memphis Center
Mon 09:37:57 PM 33.1958 -90.3200 223° Southwest 412 474 43,000  Level Memphis Center
Mon 09:38:57 PM 33.1144 -90.4167 225° Southwest 412 474 43,000  Level Memphis Center
Mon 09:39:57 PM 33.0308 -90.5158 225° Southwest 417 480 43,000  Level Memphis Center
Mon 09:40:57 PM 32.9472 -90.6122 224° Southwest 417 480 43,000  Level Memphis Center
Mon 09:41:57 PM 32.8636 -90.7083 224° Southwest 417 480 43,000  Level Memphis Center
Mon 09:42:57 PM 32.7692 -90.8169 224° Southwest 422 486 43,000  Level Memphis Center
Mon 09:43:57 PM 32.6853 -90.9103 223° Southwest 422 486 43,000  Level Memphis Center
Mon 09:45:59 PM 32.5239 -91.0931 224° Southwest 425 489 43,000  Level Houston Center
Mon 09:47:00 PM 32.4394 -91.1889 224° Southwest 422 486 43,000  Level Houston Center
Mon 09:48:02 PM 32.3547 -91.2858 224° Southwest 421 484 43,000  Level Houston Center
Mon 09:49:03 PM 32.2536 -91.4022 224° Southwest 424 488 43,000  Level Houston Center
Mon 09:50:04 PM 32.1700 -91.5003 225° Southwest 423 487 43,000  Level Houston Center
Mon 09:51:05 PM 32.0875 -91.5983 225° Southwest 423 487 43,000  Level Houston Center
Mon 09:52:07 PM 32.0217 -91.7086 235° Southwest 411 473 43,000  Level Houston Center
Mon 09:53:08 PM 31.9631 -91.8258 240° Southwest 414 476 43,000  Level Houston Center
Mon 09:54:09 PM 31.9058 -91.9431 240° Southwest 414 476 43,000  Level Houston Center
Mon 09:55:10 PM 31.8403 -92.0681 238° Southwest 409 471 43,000  Level Houston Center
Mon 09:56:11 PM 31.7803 -92.1831 238° Southwest 411 473 43,000  Level Houston Center
Mon 09:57:13 PM 31.7225 -92.2956 239° Southwest 407 468 43,000  Level Houston Center
Mon 09:58:14 PM 31.6619 -92.4092 238° Southwest 410 472 43,000  Level Houston Center
Mon 09:59:15 PM 31.6003 -92.5214 237° Southwest 410 472 43,000  Level Houston Center
Mon 10:00:16 PM 31.5397 -92.6325 237° Southwest 409 471 43,000  Level Houston Center
Mon 10:01:17 PM 31.4772 -92.7439 237° Southwest 411 473 43,000  Level Houston Center
Mon 10:02:19 PM 31.4167 -92.8575 238° Southwest 412 474 43,000  Level Houston Center
Mon 10:03:20 PM 31.3547 -92.9678 237° Southwest 409 471 43,000  Level Houston Center
Mon 10:04:21 PM 31.2817 -93.1033 238° Southwest 411 473 43,000  Level Houston Center
Mon 10:05:22 PM 31.2200 -93.2131 237° Southwest 408 470 43,000  Level Houston Center
Mon 10:06:23 PM 31.1589 -93.3258 238° Southwest 410 472 43,000  Level Houston Center
Mon 10:07:24 PM 31.0978 -93.4369 237° Southwest 410 472 43,000  Level Houston Center
Mon 10:08:25 PM 31.0344 -93.5475 236° Southwest 411 473 43,000  Level Houston Center
Mon 10:09:27 PM 30.9725 -93.6594 237° Southwest 413 475 43,000 -98 Level Houston Center
Mon 10:10:28 PM 30.9103 -93.7692 237° Southwest 410 472 42,800 -541 Descending Houston Center
Mon 10:11:29 PM 30.8481 -93.8767 236° Southwest 404 465 41,900 -2,066 Descending Houston Center
Mon 10:12:30 PM 30.7908 -93.9833 238° Southwest 394 453 38,600 -3,295 Descending Houston Center
Mon 10:13:31 PM 30.7183 -94.1061 236° Southwest 387 445 35,200 -3,541 Descending Houston Center
Mon 10:14:32 PM 30.6619 -94.2111 238° Southwest 383 441 31,400 -4,380 Descending Houston Center
Mon 10:15:11 PM 30.6233 -94.2842 238° Southwest 389 448 27,900 -5,032 Descending Houston Center
Mon 10:15:34 PM 30.6047 -94.3206 239° Southwest 397 457 26,200 -5,016 Descending Houston Center
Mon 10:16:12 PM 30.5647 -94.3939 238° Southwest 415 478 22,800 -4,525 Descending Houston Center
Mon 10:16:35 PM 30.5447 -94.4331 239° Southwest 409 471 21,600 -3,800 Descending Houston Center
Mon 10:17:12 PM 30.5067 -94.5083 240° Southwest 404 465 19,000 -3,246 Descending Houston Center
Mon 10:17:36 PM 30.4933 -94.5353 240° Southwest 399 459 18,300 -3,049 Descending Houston Center
Mon 10:18:13 PM 30.4406 -94.6067 229° Southwest 346 398 15,900 -2,852 Descending Houston Center
Mon 10:18:37 PM 30.4306 -94.6219 233° Southwest 361 415 15,400 -2,557 Descending Houston Center
Mon 10:19:14 PM 30.3797 -94.6944 231° Southwest 349 402 13,300 -2,262 Descending Houston Center
Mon 10:19:38 PM 30.3581 -94.7264 232° Southwest 352 405 13,100 -295 Descending Houston Center
Mon 10:20:15 PM 30.3228 -94.7792 232° Southwest 336 387 13,000 -98 Descending Houston Center
Mon 10:20:39 PM 30.3025 -94.8125 235° Southwest 340 391 13,000 -98 Level Houston Center
Mon 10:21:16 PM 30.2661 -94.8686 233° Southwest 342 394 12,900 97 Descending Houston Center
Mon 10:21:41 PM 30.2450 -94.9022 234° Southwest 345 397 13,100  Climbing Houston Center
Mon 10:22:16 PM 30.2114 -94.9578 235° Southwest 341 392 12,900 -689 Descending Houston Center
Mon 10:22:42 PM 30.1922 -94.9883 234° Southwest 334 384 12,400 -1,672 Descending Houston Center
Mon 10:23:17 PM 30.1603 -95.0392 234° Southwest 313 360 11,200 -1,672 Descending Houston Center
Mon 10:23:43 PM 30.1342 -95.0586 213° Southwest 316 364 10,700 -1,180 Descending Houston Center
Mon 10:24:18 PM 30.0764 -95.0833 200° South 307 353 10,000 -590 Descending Houston Center
Mon 10:24:44 PM 30.0525 -95.0928 199° South 318 366 10,100  Climbing Houston Center
Mon 10:25:19 PM 29.9939 -95.1225 204° Southwest 320 368 10,000  Descending Houston Center
Mon 10:25:45 PM 29.9708 -95.1322 200° South 319 367 10,100 -98 Climbing Houston Center
Mon 10:26:20 PM 29.9156 -95.1611 204° Southwest 290 334 9,900 -492 Descending Houston Center
Mon 10:26:46 PM 29.8967 -95.1708 204° Southwest 299 344 9,600 -1,672 Descending Houston Center
Mon 10:27:21 PM 29.8472 -95.1958 204° Southwest 269 310 8,200 -1,967 Descending Houston Center
Mon 10:27:47 PM 29.8269 -95.2022 195° South 276 318 7,600 -1,900 Descending Houston Center
Mon 10:28:21 PM 29.7744 -95.2242 200° South 278 320 6,300 -1,548 Descending Houston Center
Mon 10:28:49 PM 29.7389 -95.2233 179° South 277 319 6,000 -295 Descending Houston Center
Mon 10:29:22 PM 29.6950 -95.2289 186° South 265 305 6,000  Level Houston Center
Mon 10:29:50 PM 29.6672 -95.2300 182° South 265 305 6,000  Level Houston Center
Mon 10:30:23 PM 29.6200 -95.2356 186° South 264 304 6,000  Level Houston Center
Mon 10:30:51 PM 29.5958 -95.2378 185° South 266 306 6,000 -689 Level Houston Center
Mon 10:31:24 PM 29.5542 -95.2725 216° Southwest 287 330 5,300 -1,377 Descending Houston Center
Mon 10:31:52 PM 29.5372 -95.2925 226° Southwest 278 320 4,600 -2,066 Descending Houston Center
Mon 10:32:25 PM 29.5039 -95.3433 233° Southwest 287 330 3,200 -1,869 Descending Houston Center
Mon 10:32:53 PM 29.4964 -95.3692 252° West 283 326 2,700 -1,082 Descending Houston Center
Mon 10:33:26 PM 29.5172 -95.4186 296° West 266 306 2,100 -689 Descending Houston Center
Mon 10:33:54 PM 29.5364 -95.4072 27° Northeast 282 325 2,000  Descending Houston Center
Mon 10:34:26 PM 29.5650 -95.3672 51° Northeast 235 270 2,100  Climbing Houston Center
Mon 10:34:55 PM 29.5783 -95.3511 46° Northeast 244 281 2,000 -590 Descending Houston Center
Mon 10:35:27 PM 29.6031 -95.3267 41° Northeast 158 182 1,500 -885 Descending Houston Center
Mon 10:35:56 PM 29.6119 -95.3161 46° Northeast 190 219 1,100 -1,180 Descending Houston Center
Mon 10:36:28 PM 29.6297 -95.2947 46° Northeast 134 154 300 -984 Descending Houston Center
Mon 10:36:57 PM 29.6381 -95.2853 45° Northeast 140 161 100 -414 Descending Houston Center

Login

Don't have an account? Register now (free) for customized features, flight alerts, and more!